sensor_id;sensor_type;location;lat;lon;timestamp;pressure;altitude;pressure_sealevel;temperature;humidity
70902;BME280;58548;47.210;8.618;2023-04-04T00:00:35;94252.69;;;9.09;31.60
70902;BME280;58548;47.210;8.618;2023-04-04T00:03:01;94359.69;;;9.69;32.10
70902;BME280;58548;47.210;8.618;2023-04-04T00:05:27;94346.28;;;9.72;31.19
70902;BME280;58548;47.210;8.618;2023-04-04T00:07:53;94344.31;;;9.74;31.62
70902;BME280;58548;47.210;8.618;2023-04-04T00:10:19;94301.47;;;9.54;30.92
70902;BME280;58548;47.210;8.618;2023-04-04T00:12:45;94285.28;;;9.43;31.69
70902;BME280;58548;47.210;8.618;2023-04-04T00:15:11;94342.31;;;9.76;31.46
70902;BME280;58548;47.210;8.618;2023-04-04T00:17:37;94261.34;;;9.25;31.35
70902;BME280;58548;47.210;8.618;2023-04-04T00:20:03;94205.66;;;8.87;31.38
70902;BME280;58548;47.210;8.618;2023-04-04T00:22:30;94323.88;;;9.63;31.17
70902;BME280;58548;47.210;8.618;2023-04-04T00:24:56;94306.97;;;9.59;30.86
70902;BME280;58548;47.210;8.618;2023-04-04T00:27:24;94266.94;;;9.37;31.38
70902;BME280;58548;47.210;8.618;2023-04-04T00:29:50;94327.13;;;9.65;31.43
70902;BME280;58548;47.210;8.618;2023-04-04T00:32:18;94329.38;;;9.68;31.28
70902;BME280;58548;47.210;8.618;2023-04-04T00:34:45;94332.78;;;9.69;31.06
70902;BME280;58548;47.210;8.618;2023-04-04T00:37:15;94341.50;;;9.61;30.83
70902;BME280;58548;47.210;8.618;2023-04-04T00:39:42;94238.75;;;9.02;31.61
70902;BME280;58548;47.210;8.618;2023-04-04T00:42:10;94211.22;;;8.84;31.18
70902;BME280;58548;47.210;8.618;2023-04-04T00:44:38;94324.22;;;9.60;31.22
70902;BME280;58548;47.210;8.618;2023-04-04T00:47:06;94328.66;;;9.59;31.26
70902;BME280;58548;47.210;8.618;2023-04-04T00:49:32;94201.84;;;8.75;31.28
70902;BME280;58548;47.210;8.618;2023-04-04T00:52:01;94329.78;;;9.57;31.56
70902;BME280;58548;47.210;8.618;2023-04-04T00:54:29;94318.47;;;9.49;31.55
70902;BME280;58548;47.210;8.618;2023-04-04T00:56:55;94244.09;;;9.00;31.46
70902;BME280;58548;47.210;8.618;2023-04-04T00:59:26;94199.53;;;8.80;31.44
70902;BME280;58548;47.210;8.618;2023-04-04T01:01:54;94314.88;;;9.50;31.94
70902;BME280;58548;47.210;8.618;2023-04-04T01:04:21;94203.94;;;8.95;31.55
70902;BME280;58548;47.210;8.618;2023-04-04T01:06:47;94209.88;;;8.88;31.57
70902;BME280;58548;47.210;8.618;2023-04-04T01:09:15;94287.94;;;9.35;31.60
70902;BME280;58548;47.210;8.618;2023-04-04T01:11:42;94312.09;;;9.52;31.33
70902;BME280;58548;47.210;8.618;2023-04-04T01:14:11;94300.56;;;9.46;31.69
70902;BME280;58548;47.210;8.618;2023-04-04T01:16:37;94316.06;;;9.63;31.33
70902;BME280;58548;47.210;8.618;2023-04-04T01:19:08;94315.69;;;9.66;31.73
70902;BME280;58548;47.210;8.618;2023-04-04T01:21:35;94195.34;;;8.94;31.86
70902;BME280;58548;47.210;8.618;2023-04-04T01:24:06;94274.50;;;9.46;31.52
70902;BME280;58548;47.210;8.618;2023-04-04T01:26:33;94302.75;;;9.73;31.51
70902;BME280;58548;47.210;8.618;2023-04-04T01:29:02;94195.25;;;8.87;31.33
70902;BME280;58548;47.210;8.618;2023-04-04T01:31:41;94262.13;;;9.25;31.12
70902;BME280;58548;47.210;8.618;2023-04-04T01:39:31;94161.97;;;8.74;31.35
70902;BME280;58548;47.210;8.618;2023-04-04T01:41:59;94237.66;;;9.11;31.20
70902;BME280;58548;47.210;8.618;2023-04-04T01:44:28;94279.25;;;9.28;31.40
70902;BME280;58548;47.210;8.618;2023-04-04T01:46:56;94302.69;;;9.43;31.54
70902;BME280;58548;47.210;8.618;2023-04-04T01:49:27;94215.34;;;8.94;32.04
70902;BME280;58548;47.210;8.618;2023-04-04T01:51:56;94267.72;;;9.37;31.47
70902;BME280;58548;47.210;8.618;2023-04-04T01:54:22;94282.31;;;9.46;31.69
70902;BME280;58548;47.210;8.618;2023-04-04T01:56:51;94196.47;;;8.92;31.18
70902;BME280;58548;47.210;8.618;2023-04-04T01:59:17;94234.81;;;9.06;31.71
70902;BME280;58548;47.210;8.618;2023-04-04T02:01:43;94192.94;;;8.69;31.70
70902;BME280;58548;47.210;8.618;2023-04-04T02:04:11;94296.41;;;9.37;31.81
70902;BME280;58548;47.210;8.618;2023-04-04T02:06:40;94252.59;;;9.17;31.75
70902;BME280;58548;47.210;8.618;2023-04-04T02:09:07;94307.91;;;9.43;31.62
70902;BME280;58548;47.210;8.618;2023-04-04T02:11:33;94276.69;;;9.19;31.91
70902;BME280;58548;47.210;8.618;2023-04-04T02:13:59;94302.25;;;9.39;32.07
70902;BME280;58548;47.210;8.618;2023-04-04T02:16:26;94298.38;;;9.35;31.56
70902;BME280;58548;47.210;8.618;2023-04-04T02:18:52;94304.69;;;9.41;31.63
70902;BME280;58548;47.210;8.618;2023-04-04T02:21:20;94289.22;;;9.39;31.65
70902;BME280;58548;47.210;8.618;2023-04-04T02:23:50;94172.81;;;8.63;31.81
70902;BME280;58548;47.210;8.618;2023-04-04T02:26:18;94196.00;;;8.73;31.58
70902;BME280;58548;47.210;8.618;2023-04-04T02:28:46;94311.06;;;9.38;31.90
70902;BME280;58548;47.210;8.618;2023-04-04T02:31:14;94248.81;;;9.05;31.84
70902;BME280;58548;47.210;8.618;2023-04-04T02:33:40;94274.38;;;9.25;31.70
70902;BME280;58548;47.210;8.618;2023-04-04T02:36:08;94302.81;;;9.49;31.83
70902;BME280;58548;47.210;8.618;2023-04-04T02:38:36;94291.94;;;9.46;31.26
70902;BME280;58548;47.210;8.618;2023-04-04T02:41:02;94197.56;;;8.82;31.35
70902;BME280;58548;47.210;8.618;2023-04-04T02:43:30;94184.59;;;8.74;31.28
70902;BME280;58548;47.210;8.618;2023-04-04T02:45:56;94171.41;;;8.52;31.60
70902;BME280;58548;47.210;8.618;2023-04-04T02:48:24;94301.63;;;9.37;31.29
70902;BME280;58548;47.210;8.618;2023-04-04T02:50:52;94297.28;;;9.29;31.04
70902;BME280;58548;47.210;8.618;2023-04-04T02:53:20;94301.41;;;9.24;31.26
70902;BME280;58548;47.210;8.618;2023-04-04T02:55:46;94270.09;;;9.09;31.71
70902;BME280;58548;47.210;8.618;2023-04-04T02:58:17;94205.56;;;8.57;31.79
70902;BME280;58548;47.210;8.618;2023-04-04T03:00:46;94300.78;;;9.22;31.58
70902;BME280;58548;47.210;8.618;2023-04-04T03:03:17;94158.13;;;8.47;31.85
70902;BME280;58548;47.210;8.618;2023-04-04T03:05:43;94188.38;;;8.48;32.08
70902;BME280;58548;47.210;8.618;2023-04-04T03:08:09;94291.06;;;9.15;31.18
70902;BME280;58548;47.210;8.618;2023-04-04T03:10:37;94291.69;;;9.17;31.84
70902;BME280;58548;47.210;8.618;2023-04-04T03:13:03;94287.75;;;9.22;31.95
70902;BME280;58548;47.210;8.618;2023-04-04T03:15:29;94179.41;;;8.51;31.79
70902;BME280;58548;47.210;8.618;2023-04-04T03:17:56;94305.00;;;9.23;31.70
70902;BME280;58548;47.210;8.618;2023-04-04T03:20:23;94152.31;;;8.37;31.70
70902;BME280;58548;47.210;8.618;2023-04-04T03:22:50;94180.56;;;8.48;31.26
70902;BME280;58548;47.210;8.618;2023-04-04T03:25:19;94171.47;;;8.44;31.76
70902;BME280;58548;47.210;8.618;2023-04-04T03:27:45;94198.38;;;8.59;31.29
70902;BME280;58548;47.210;8.618;2023-04-04T03:30:11;94260.28;;;8.96;31.52
70902;BME280;58548;47.210;8.618;2023-04-04T03:32:40;94284.94;;;9.08;31.77
70902;BME280;58548;47.210;8.618;2023-04-04T03:35:06;94272.75;;;9.00;31.60
70902;BME280;58548;47.210;8.618;2023-04-04T03:37:33;94241.53;;;8.77;31.65
70902;BME280;58548;47.210;8.618;2023-04-04T03:39:59;94189.19;;;8.49;31.53
70902;BME280;58548;47.210;8.618;2023-04-04T03:42:25;94274.56;;;9.00;31.42
70902;BME280;58548;47.210;8.618;2023-04-04T03:44:53;94169.25;;;8.33;31.57
70902;BME280;58548;47.210;8.618;2023-04-04T03:47:20;94294.25;;;9.02;31.49
70902;BME280;58548;47.210;8.618;2023-04-04T03:49:46;94194.91;;;8.44;31.46
70902;BME280;58548;47.210;8.618;2023-04-04T03:52:12;94135.47;;;8.01;31.74
70902;BME280;58548;47.210;8.618;2023-04-04T03:54:38;94263.31;;;8.84;31.88
70902;BME280;58548;47.210;8.618;2023-04-04T03:57:04;94275.34;;;8.85;31.68
70902;BME280;58548;47.210;8.618;2023-04-04T03:59:31;94089.03;;;7.66;31.98
70902;BME280;58548;47.210;8.618;2023-04-04T04:01:57;94258.56;;;8.65;31.68
70902;BME280;58548;47.210;8.618;2023-04-04T04:04:23;94175.31;;;8.02;31.95
70902;BME280;58548;47.210;8.618;2023-04-04T04:06:52;94280.94;;;8.74;31.46
70902;BME280;58548;47.210;8.618;2023-04-04T04:09:18;94286.78;;;8.76;31.98
70902;BME280;58548;47.210;8.618;2023-04-04T04:11:44;94164.66;;;7.88;32.12
70902;BME280;58548;47.210;8.618;2023-04-04T04:14:10;94159.78;;;7.85;31.48
70902;BME280;58548;47.210;8.618;2023-04-04T04:16:40;94297.59;;;8.65;32.20
70902;BME280;58548;47.210;8.618;2023-04-04T04:19:06;94183.66;;;7.89;31.93
70902;BME280;58548;47.210;8.618;2023-04-04T04:21:37;94187.41;;;7.86;32.23
70902;BME280;58548;47.210;8.618;2023-04-04T04:24:06;94259.69;;;8.30;32.40
70902;BME280;58548;47.210;8.618;2023-04-04T04:26:34;94291.50;;;8.49;31.86
70902;BME280;58548;47.210;8.618;2023-04-04T04:29:03;94297.97;;;8.53;32.05
70902;BME280;58548;47.210;8.618;2023-04-04T04:31:29;94297.63;;;8.56;32.24
70902;BME280;58548;47.210;8.618;2023-04-04T04:33:58;94287.91;;;8.50;32.38
70902;BME280;58548;47.210;8.618;2023-04-04T04:36:24;94279.66;;;8.38;31.88
70902;BME280;58548;47.210;8.618;2023-04-04T04:38:50;94160.84;;;7.67;32.21
70902;BME280;58548;47.210;8.618;2023-04-04T04:41:19;94301.91;;;8.49;32.06
70902;BME280;58548;47.210;8.618;2023-04-04T04:43:45;94303.72;;;8.40;32.30
70902;BME280;58548;47.210;8.618;2023-04-04T04:46:11;94235.81;;;7.87;32.47
70902;BME280;58548;47.210;8.618;2023-04-04T04:48:37;94301.75;;;8.42;32.08
70902;BME280;58548;47.210;8.618;2023-04-04T04:51:06;94310.88;;;8.38;32.32
70902;BME280;58548;47.210;8.618;2023-04-04T04:53:32;94283.69;;;8.09;32.56
70902;BME280;58548;47.210;8.618;2023-04-04T04:55:58;94174.28;;;7.39;32.18
70902;BME280;58548;47.210;8.618;2023-04-04T04:58:26;94314.03;;;8.25;32.17
70902;BME280;58548;47.210;8.618;2023-04-04T05:00:57;94303.34;;;8.20;32.55
70902;BME280;58548;47.210;8.618;2023-04-04T05:03:24;94325.06;;;8.27;32.83
70902;BME280;58548;47.210;8.618;2023-04-04T05:05:52;94316.00;;;8.23;32.49
70902;BME280;58548;47.210;8.618;2023-04-04T05:08:18;94327.59;;;8.12;32.56
70902;BME280;58548;47.210;8.618;2023-04-04T05:10:44;94288.47;;;7.97;32.88
70902;BME280;58548;47.210;8.618;2023-04-04T05:13:12;94289.59;;;7.95;32.55
70902;BME280;58548;47.210;8.618;2023-04-04T05:15:41;94202.88;;;7.39;32.96
70902;BME280;58548;47.210;8.618;2023-04-04T05:18:07;94240.13;;;7.63;32.97
70902;BME280;58548;47.210;8.618;2023-04-04T05:20:34;94334.22;;;8.23;33.01
70902;BME280;58548;47.210;8.618;2023-04-04T05:23:00;94215.16;;;7.54;32.86
70902;BME280;58548;47.210;8.618;2023-04-04T05:25:26;94336.44;;;8.35;32.54
70902;BME280;58548;47.210;8.618;2023-04-04T05:27:57;94200.16;;;7.64;32.55
70902;BME280;58548;47.210;8.618;2023-04-04T05:30:25;94332.72;;;8.29;32.63
70902;BME280;58548;47.210;8.618;2023-04-04T05:32:51;94219.69;;;7.60;33.39
70902;BME280;58548;47.210;8.618;2023-04-04T05:35:20;94349.75;;;8.40;33.16
70902;BME280;58548;47.210;8.618;2023-04-04T05:37:49;94133.13;;;7.12;32.53
70902;BME280;58548;47.210;8.618;2023-04-04T05:40:16;94219.44;;;7.78;33.01
70902;BME280;58548;47.210;8.618;2023-04-04T05:42:53;94214.56;;;7.83;32.73
70902;BME280;58548;47.210;8.618;2023-04-04T05:45:19;94340.69;;;8.67;32.75
70902;BME280;58548;47.210;8.618;2023-04-04T05:47:45;94299.94;;;8.51;33.04
70902;BME280;58548;47.210;8.618;2023-04-04T05:50:11;94239.00;;;8.06;32.36
70902;BME280;58548;47.210;8.618;2023-04-04T05:52:39;94343.13;;;8.69;32.32
70902;BME280;58548;47.210;8.618;2023-04-04T05:55:08;94307.38;;;8.63;32.95
70902;BME280;58548;47.210;8.618;2023-04-04T05:57:34;94345.13;;;8.90;31.99
70902;BME280;58548;47.210;8.618;2023-04-04T06:00:00;94121.56;;;7.62;32.29
70902;BME280;58548;47.210;8.618;2023-04-04T06:02:26;94239.13;;;8.44;32.05
70902;BME280;58548;47.210;8.618;2023-04-04T06:04:56;94117.00;;;7.64;32.09
70902;BME280;58548;47.210;8.618;2023-04-04T06:07:22;94216.72;;;8.35;32.37
70902;BME280;58548;47.210;8.618;2023-04-04T06:09:50;94347.69;;;9.22;31.83
70902;BME280;58548;47.210;8.618;2023-04-04T06:12:16;94306.06;;;8.90;31.72
70902;BME280;58548;47.210;8.618;2023-04-04T06:14:44;94357.75;;;9.25;31.96
70902;BME280;58548;47.210;8.618;2023-04-04T06:17:13;94312.03;;;8.99;32.28
70902;BME280;58548;47.210;8.618;2023-04-04T06:19:39;94358.97;;;9.37;32.15
70902;BME280;58548;47.210;8.618;2023-04-04T06:22:05;94244.88;;;8.86;31.55
70902;BME280;58548;47.210;8.618;2023-04-04T06:24:30;94354.19;;;9.64;31.63
70902;BME280;58548;47.210;8.618;2023-04-04T06:26:56;94232.16;;;8.91;30.92
70902;BME280;58548;47.210;8.618;2023-04-04T06:29:22;94236.19;;;9.17;30.73
70902;BME280;58548;47.210;8.618;2023-04-04T06:31:51;94339.09;;;9.74;30.57
70902;BME280;58548;47.210;8.618;2023-04-04T06:34:17;94358.38;;;10.03;31.22
70902;BME280;58548;47.210;8.618;2023-04-04T06:36:42;94357.19;;;10.21;31.20
70902;BME280;58548;47.210;8.618;2023-04-04T06:39:08;94338.03;;;9.99;30.52
70902;BME280;58548;47.210;8.618;2023-04-04T06:41:36;94286.28;;;10.02;30.24
70902;BME280;58548;47.210;8.618;2023-04-04T06:44:02;94229.09;;;9.86;29.33
70902;BME280;58548;47.210;8.618;2023-04-04T06:46:29;94257.88;;;10.07;29.78
70902;BME280;58548;47.210;8.618;2023-04-04T06:48:56;94253.28;;;9.94;29.71
70902;BME280;58548;47.210;8.618;2023-04-04T06:51:24;94357.63;;;10.69;30.08
70902;BME280;58548;47.210;8.618;2023-04-04T06:53:50;94360.84;;;10.86;30.01
70902;BME280;58548;47.210;8.618;2023-04-04T06:56:19;94360.50;;;10.90;29.17
70902;BME280;58548;47.210;8.618;2023-04-04T06:58:45;94322.06;;;10.68;29.75
70902;BME280;58548;47.210;8.618;2023-04-04T07:01:16;94293.69;;;10.65;28.92
70902;BME280;58548;47.210;8.618;2023-04-04T07:03:47;94363.97;;;11.19;28.81
70902;BME280;58548;47.210;8.618;2023-04-04T07:06:16;94224.16;;;10.43;28.82
70902;BME280;58548;47.210;8.618;2023-04-04T07:08:45;94259.56;;;10.67;28.45
70902;BME280;58548;47.210;8.618;2023-04-04T07:11:11;94338.97;;;11.53;28.74
70902;BME280;58548;47.210;8.618;2023-04-04T07:13:37;94290.31;;;11.58;28.37
70902;BME280;58548;47.210;8.618;2023-04-04T07:16:05;94337.06;;;12.32;28.57
70902;BME280;58548;47.210;8.618;2023-04-04T07:18:33;94344.72;;;12.82;27.98
70902;BME280;58548;47.210;8.618;2023-04-04T07:20:59;94371.72;;;13.45;26.92
70902;BME280;58548;47.210;8.618;2023-04-04T07:23:25;94321.28;;;13.49;27.02
70902;BME280;58548;47.210;8.618;2023-04-04T07:25:52;94330.97;;;13.89;26.08
70902;BME280;58548;47.210;8.618;2023-04-04T07:28:20;94367.84;;;14.21;25.00
70902;BME280;58548;47.210;8.618;2023-04-04T07:30:49;94259.94;;;13.64;25.39
70902;BME280;58548;47.210;8.618;2023-04-04T07:33:17;94347.63;;;14.35;24.39
70902;BME280;58548;47.210;8.618;2023-04-04T07:35:43;94341.63;;;14.08;23.91
70902;BME280;58548;47.210;8.618;2023-04-04T07:38:09;94251.03;;;13.58;24.92
70902;BME280;58548;47.210;8.618;2023-04-04T07:40:35;94367.66;;;14.29;24.28
70902;BME280;58548;47.210;8.618;2023-04-04T07:43:03;94267.59;;;13.65;24.75
70902;BME280;58548;47.210;8.618;2023-04-04T07:45:31;94339.38;;;14.25;24.38
70902;BME280;58548;47.210;8.618;2023-04-04T07:47:57;94356.94;;;14.38;24.43
70902;BME280;58548;47.210;8.618;2023-04-04T07:50:23;94264.31;;;13.90;24.44
70902;BME280;58548;47.210;8.618;2023-04-04T07:52:49;94356.41;;;14.68;24.33
70902;BME280;58548;47.210;8.618;2023-04-04T07:55:25;94310.00;;;14.48;24.08
70902;BME280;58548;47.210;8.618;2023-04-04T07:57:51;94278.72;;;14.40;24.08
70902;BME280;58548;47.210;8.618;2023-04-04T08:00:18;94370.13;;;15.29;24.06
70902;BME280;58548;47.210;8.618;2023-04-04T08:02:51;94274.91;;;14.81;23.13
70902;BME280;58548;47.210;8.618;2023-04-04T08:05:18;94277.22;;;15.03;23.31
70902;BME280;58548;47.210;8.618;2023-04-04T08:07:46;94261.25;;;14.98;22.31
70902;BME280;58548;47.210;8.618;2023-04-04T08:10:12;94372.69;;;15.67;23.02
70902;BME280;58548;47.210;8.618;2023-04-04T08:12:42;94368.16;;;15.81;22.38
70902;BME280;58548;47.210;8.618;2023-04-04T08:15:10;94369.91;;;15.94;23.00
70902;BME280;58548;47.210;8.618;2023-04-04T08:17:39;94374.88;;;16.47;22.61
70902;BME280;58548;47.210;8.618;2023-04-04T08:20:05;94330.56;;;16.55;22.47
70902;BME280;58548;47.210;8.618;2023-04-04T08:22:34;94373.25;;;17.01;21.44
70902;BME280;58548;47.210;8.618;2023-04-04T08:25:02;94268.91;;;16.56;22.01
70902;BME280;58548;47.210;8.618;2023-04-04T08:27:28;94298.41;;;17.14;21.99
70902;BME280;58548;47.210;8.618;2023-04-04T08:30:00;94362.22;;;17.66;20.64
70902;BME280;58548;47.210;8.618;2023-04-04T08:32:28;94336.16;;;17.57;20.64
70902;BME280;58548;47.210;8.618;2023-04-04T08:34:59;94379.72;;;17.90;20.30
70902;BME280;58548;47.210;8.618;2023-04-04T08:37:25;94384.94;;;18.09;19.96
70902;BME280;58548;47.210;8.618;2023-04-04T08:39:50;94301.97;;;18.10;20.74
70902;BME280;58548;47.210;8.618;2023-04-04T08:42:17;94389.63;;;19.19;19.13
70902;BME280;58548;47.210;8.618;2023-04-04T08:44:49;94286.06;;;19.16;20.19
70902;BME280;58548;47.210;8.618;2023-04-04T08:47:20;94294.50;;;20.15;19.51
70902;BME280;58548;47.210;8.618;2023-04-04T08:49:53;94380.91;;;21.34;17.65
70902;BME280;58548;47.210;8.618;2023-04-04T08:52:21;94388.25;;;21.49;17.34
70902;BME280;58548;47.210;8.618;2023-04-04T08:54:52;94389.38;;;21.58;17.17
70902;BME280;58548;47.210;8.618;2023-04-04T08:57:21;94357.63;;;21.68;16.93
70902;BME280;58548;47.210;8.618;2023-04-04T08:59:48;94332.28;;;21.88;17.16
70902;BME280;58548;47.210;8.618;2023-04-04T09:02:19;94393.19;;;22.70;16.54
70902;BME280;58548;47.210;8.618;2023-04-04T09:04:47;94376.47;;;22.80;15.68
70902;BME280;58548;47.210;8.618;2023-04-04T09:07:17;94358.06;;;22.25;14.88
70902;BME280;58548;47.210;8.618;2023-04-04T09:09:48;94339.75;;;21.64;15.02
70902;BME280;58548;47.210;8.618;2023-04-04T09:12:21;94314.75;;;21.05;15.67
70902;BME280;58548;47.210;8.618;2023-04-04T09:14:54;94398.34;;;21.24;15.92
70902;BME280;58548;47.210;8.618;2023-04-04T09:17:21;94298.69;;;20.50;16.31
70902;BME280;58548;47.210;8.618;2023-04-04T09:19:47;94395.19;;;21.28;16.81
70902;BME280;58548;47.210;8.618;2023-04-04T09:22:20;94308.81;;;20.98;16.55
70902;BME280;58548;47.210;8.618;2023-04-04T09:24:46;94378.31;;;21.39;15.93
70902;BME280;58548;47.210;8.618;2023-04-04T09:27:14;94404.13;;;21.21;15.23
70902;BME280;58548;47.210;8.618;2023-04-04T09:29:41;94318.25;;;20.04;15.67
70902;BME280;58548;47.210;8.618;2023-04-04T09:32:08;94316.47;;;19.76;16.28
70902;BME280;58548;47.210;8.618;2023-04-04T09:34:34;94396.81;;;20.11;17.00
70902;BME280;58548;47.210;8.618;2023-04-04T09:37:03;94394.06;;;19.88;17.53
70902;BME280;58548;47.210;8.618;2023-04-04T09:39:31;94308.09;;;19.50;17.51
70902;BME280;58548;47.210;8.618;2023-04-04T09:41:59;94339.59;;;20.15;17.54
70902;BME280;58548;47.210;8.618;2023-04-04T09:44:27;94393.13;;;21.35;16.97
70902;BME280;58548;47.210;8.618;2023-04-04T09:49:58;94396.34;;;22.24;15.10
70902;BME280;58548;47.210;8.618;2023-04-04T09:52:24;94385.19;;;22.65;14.64
70902;BME280;58548;47.210;8.618;2023-04-04T09:54:57;94363.47;;;22.84;15.10
70902;BME280;58548;47.210;8.618;2023-04-04T09:57:27;94386.56;;;23.26;14.35
70902;BME280;58548;47.210;8.618;2023-04-04T10:00:00;94299.44;;;22.53;14.98
70902;BME280;58548;47.210;8.618;2023-04-04T10:02:29;94294.22;;;22.84;15.49
70902;BME280;58548;47.210;8.618;2023-04-04T10:04:56;94394.88;;;23.66;14.55
70902;BME280;58548;47.210;8.618;2023-04-04T10:07:26;94401.00;;;23.51;13.97
70902;BME280;58548;47.210;8.618;2023-04-04T10:09:54;94358.72;;;23.01;14.26
70902;BME280;58548;47.210;8.618;2023-04-04T10:12:23;94363.47;;;22.89;14.36
70902;BME280;58548;47.210;8.618;2023-04-04T10:14:59;94326.56;;;22.50;13.82
70902;BME280;58548;47.210;8.618;2023-04-04T10:17:35;94396.78;;;22.92;15.22
70902;BME280;58548;47.210;8.618;2023-04-04T10:20:07;94340.34;;;22.41;14.68
70902;BME280;58548;47.210;8.618;2023-04-04T10:22:37;94398.97;;;23.10;14.26
70902;BME280;58548;47.210;8.618;2023-04-04T10:25:07;94399.41;;;23.55;14.98
70902;BME280;58548;47.210;8.618;2023-04-04T10:27:40;94397.03;;;23.69;14.13
70902;BME280;58548;47.210;8.618;2023-04-04T10:30:12;94375.72;;;23.74;14.12
70902;BME280;58548;47.210;8.618;2023-04-04T10:33:00;94321.22;;;23.18;14.22
70902;BME280;58548;47.210;8.618;2023-04-04T10:35:34;94349.94;;;22.96;13.74
70902;BME280;58548;47.210;8.618;2023-04-04T10:38:03;94295.94;;;22.47;14.77
70902;BME280;58548;47.210;8.618;2023-04-04T10:40:35;94372.03;;;23.01;14.39
70902;BME280;58548;47.210;8.618;2023-04-04T10:43:04;94406.16;;;23.04;13.72
70902;BME280;58548;47.210;8.618;2023-04-04T10:45:31;94398.31;;;23.41;13.68
70902;BME280;58548;47.210;8.618;2023-04-04T10:48:02;94399.94;;;23.47;13.11
70902;BME280;58548;47.210;8.618;2023-04-04T10:50:30;94380.69;;;23.24;13.68
70902;BME280;58548;47.210;8.618;2023-04-04T10:52:59;94399.19;;;23.83;13.97
70902;BME280;58548;47.210;8.618;2023-04-04T10:55:29;94374.94;;;24.15;13.22
70902;BME280;58548;47.210;8.618;2023-04-04T10:57:58;94393.09;;;24.29;12.84
70902;BME280;58548;47.210;8.618;2023-04-04T11:00:28;94315.19;;;23.75;12.82
70902;BME280;58548;47.210;8.618;2023-04-04T11:02:56;94403.78;;;24.34;13.03
70902;BME280;58548;47.210;8.618;2023-04-04T11:05:37;94347.47;;;24.15;12.41
70902;BME280;58548;47.210;8.618;2023-04-04T11:10:43;94298.94;;;23.76;13.11
70902;BME280;58548;47.210;8.618;2023-04-04T11:13:11;94383.47;;;24.33;12.71
70902;BME280;58548;47.210;8.618;2023-04-04T11:16:02;94387.44;;;24.61;12.31
70902;BME280;58548;47.210;8.618;2023-04-04T11:21:19;94380.00;;;24.37;11.94
70902;BME280;58548;47.210;8.618;2023-04-04T11:29:02;94374.66;;;24.43;13.68
70902;BME280;58548;47.210;8.618;2023-04-04T11:31:33;94389.88;;;24.27;12.44
70902;BME280;58548;47.210;8.618;2023-04-04T11:39:28;94363.13;;;24.73;12.58
70902;BME280;58548;47.210;8.618;2023-04-04T11:42:10;94387.56;;;25.17;12.42
70902;BME280;58548;47.210;8.618;2023-04-04T11:44:42;94289.66;;;24.81;11.62
70902;BME280;58548;47.210;8.618;2023-04-04T11:47:27;94325.75;;;24.73;11.82
70902;BME280;58548;47.210;8.618;2023-04-04T11:49:57;94376.25;;;25.30;13.02
70902;BME280;58548;47.210;8.618;2023-04-04T11:52:23;94376.13;;;25.61;12.62
70902;BME280;58548;47.210;8.618;2023-04-04T11:54:51;94378.06;;;25.90;12.52
70902;BME280;58548;47.210;8.618;2023-04-04T11:57:21;94383.78;;;26.08;12.33
70902;BME280;58548;47.210;8.618;2023-04-04T11:59:49;94381.50;;;26.30;11.87
70902;BME280;58548;47.210;8.618;2023-04-04T12:02:20;94300.91;;;26.02;12.00
70902;BME280;58548;47.210;8.618;2023-04-04T12:04:52;94295.06;;;25.95;11.20
70902;BME280;58548;47.210;8.618;2023-04-04T12:07:18;94281.69;;;25.66;11.15
70902;BME280;58548;47.210;8.618;2023-04-04T12:09:47;94377.44;;;26.03;11.61
70902;BME280;58548;47.210;8.618;2023-04-04T12:12:14;94361.75;;;25.86;10.49
70902;BME280;58548;47.210;8.618;2023-04-04T12:14:43;94290.72;;;25.30;10.86
70902;BME280;58548;47.210;8.618;2023-04-04T12:17:10;94319.72;;;25.07;10.49
70902;BME280;58548;47.210;8.618;2023-04-04T12:19:39;94295.16;;;25.05;11.17
70902;BME280;58548;47.210;8.618;2023-04-04T12:22:06;94310.19;;;24.86;11.58
70902;BME280;58548;47.210;8.618;2023-04-04T12:24:38;94367.47;;;25.29;11.12
70902;BME280;58548;47.210;8.618;2023-04-04T12:27:07;94360.00;;;25.71;11.82
70902;BME280;58548;47.210;8.618;2023-04-04T12:29:34;94372.38;;;25.97;10.59
70902;BME280;58548;47.210;8.618;2023-04-04T12:32:05;94286.75;;;25.27;11.03
70902;BME280;58548;47.210;8.618;2023-04-04T12:34:34;94369.81;;;25.81;11.12
70902;BME280;58548;47.210;8.618;2023-04-04T12:37:03;94372.44;;;25.92;10.77
70902;BME280;58548;47.210;8.618;2023-04-04T12:39:29;94293.03;;;25.02;11.02
70902;BME280;58548;47.210;8.618;2023-04-04T12:41:58;94367.69;;;25.33;11.31
70902;BME280;58548;47.210;8.618;2023-04-04T12:44:33;94302.78;;;24.62;11.43
70902;BME280;58548;47.210;8.618;2023-04-04T12:47:08;94266.09;;;24.17;11.22
70902;BME280;58548;47.210;8.618;2023-04-04T12:49:41;94374.41;;;24.18;11.32
70902;BME280;58548;47.210;8.618;2023-04-04T12:52:19;94364.22;;;23.53;11.83
70902;BME280;58548;47.210;8.618;2023-04-04T12:54:49;94384.56;;;23.01;12.19
70902;BME280;58548;47.210;8.618;2023-04-04T12:57:23;94274.88;;;22.40;12.90
70902;BME280;58548;47.210;8.618;2023-04-04T12:59:56;94375.75;;;22.95;12.77
70902;BME280;58548;47.210;8.618;2023-04-04T13:02:26;94365.72;;;22.59;12.39
70902;BME280;58548;47.210;8.618;2023-04-04T13:04:54;94368.19;;;22.28;12.29
70902;BME280;58548;47.210;8.618;2023-04-04T13:07:25;94355.28;;;22.10;12.66
70902;BME280;58548;47.210;8.618;2023-04-04T13:09:57;94340.06;;;22.00;12.67
70902;BME280;58548;47.210;8.618;2023-04-04T13:12:24;94355.19;;;21.99;12.75
70902;BME280;58548;47.210;8.618;2023-04-04T13:15:00;94366.53;;;22.22;13.00
70902;BME280;58548;47.210;8.618;2023-04-04T13:17:48;94276.25;;;21.62;12.81
70902;BME280;58548;47.210;8.618;2023-04-04T13:20:17;94353.75;;;21.81;13.15
70902;BME280;58548;47.210;8.618;2023-04-04T13:22:44;94331.28;;;21.67;13.48
70902;BME280;58548;47.210;8.618;2023-04-04T13:25:12;94354.31;;;21.89;12.56
70902;BME280;58548;47.210;8.618;2023-04-04T13:27:45;94355.44;;;21.93;12.97
70902;BME280;58548;47.210;8.618;2023-04-04T13:30:14;94290.88;;;21.65;13.59
70902;BME280;58548;47.210;8.618;2023-04-04T13:32:39;94362.56;;;22.25;12.92
70902;BME280;58548;47.210;8.618;2023-04-04T13:35:06;94270.81;;;21.84;12.77